createdAt,value
2023-01-05T06:31:28.679Z,9.50
2023-01-05T06:33:55.860Z,9.50
2023-01-05T06:36:23.030Z,9.40
2023-01-05T06:38:50.526Z,9.50
2023-01-05T06:41:17.712Z,9.50
2023-01-05T06:43:44.843Z,9.50
2023-01-05T06:46:12.506Z,9.50
2023-01-05T06:48:39.700Z,9.60
2023-01-05T06:51:06.849Z,9.60
2023-01-05T06:53:34.025Z,9.60
2023-01-05T06:56:01.212Z,9.70
2023-01-05T06:58:28.618Z,9.70
2023-01-05T07:00:55.770Z,9.10
2023-01-05T07:03:24.375Z,9.70
2023-01-05T07:05:52.165Z,10.00
2023-01-05T07:08:19.368Z,9.70
2023-01-05T07:10:46.774Z,9.40
2023-01-05T07:13:13.917Z,9.70
2023-01-05T07:15:41.928Z,9.70
2023-01-05T07:18:09.169Z,9.40
2023-01-05T07:20:36.308Z,9.00
2023-01-05T07:23:03.783Z,9.70
2023-01-05T07:25:32.600Z,9.70
2023-01-05T07:27:59.813Z,9.30
2023-01-05T07:30:27.033Z,8.60
2023-01-05T07:32:59.073Z,9.60
2023-01-05T07:35:27.319Z,9.40
2023-01-05T07:37:57.507Z,9.60
2023-01-05T07:40:24.713Z,9.60
2023-01-05T07:42:53.391Z,9.50
2023-01-05T07:45:20.960Z,9.50
2023-01-05T07:47:48.101Z,9.50
2023-01-05T07:50:15.312Z,9.50
2023-01-05T07:52:42.475Z,9.40
2023-01-05T07:55:09.946Z,9.40
2023-01-05T07:57:37.178Z,9.50
2023-01-05T08:00:05.637Z,9.50
2023-01-05T08:02:36.042Z,9.40
2023-01-05T08:05:03.778Z,9.40
2023-01-05T08:07:31.032Z,9.50
2023-01-05T08:10:18.226Z,9.50
2023-01-05T08:13:05.328Z,9.50
2023-01-05T08:15:32.558Z,9.50
2023-01-05T08:17:59.835Z,9.60
2023-01-05T08:20:27.061Z,9.60
2023-01-05T08:22:54.262Z,9.60
2023-01-05T08:25:21.704Z,9.70
2023-01-05T08:27:48.847Z,9.70
2023-01-05T08:30:16.100Z,9.70
2023-01-05T08:32:43.577Z,9.70
2023-01-05T08:35:11.118Z,9.80
2023-01-05T08:37:39.582Z,9.90
2023-01-05T08:40:09.116Z,9.90
2023-01-05T08:42:36.267Z,9.90
2023-01-05T08:45:04.458Z,9.80
2023-01-05T08:47:31.798Z,9.90
2023-01-05T08:49:58.921Z,9.80
2023-01-05T08:52:26.056Z,8.90
2023-01-05T08:54:53.189Z,9.80
2023-01-05T08:57:20.361Z,9.80
2023-01-05T08:59:47.649Z,9.80
2023-01-05T09:02:18.937Z,9.80
2023-01-05T09:04:50.830Z,9.80
2023-01-05T09:07:18.332Z,9.80
2023-01-05T09:09:45.549Z,9.70
2023-01-05T09:12:12.858Z,9.90
2023-01-05T09:14:39.993Z,9.90
2023-01-05T09:17:08.268Z,9.60
2023-01-05T09:19:36.067Z,9.90
2023-01-05T09:22:03.754Z,9.80
2023-01-05T09:24:31.076Z,9.90
2023-01-05T09:26:58.527Z,9.90
2023-01-05T09:29:25.704Z,9.90
2023-01-05T09:31:52.840Z,9.80
2023-01-05T09:34:20.040Z,9.90
2023-01-05T09:36:47.574Z,9.90
2023-01-05T09:39:14.890Z,9.90
2023-01-05T09:41:46.139Z,9.90
2023-01-05T09:44:33.642Z,10.00
2023-01-05T09:47:20.552Z,10.00
2023-01-05T09:49:50.060Z,10.10
2023-01-05T09:52:21.085Z,10.10
2023-01-05T09:54:49.015Z,10.10
2023-01-05T09:57:28.381Z,10.10
2023-01-05T10:00:00.735Z,10.20
2023-01-05T10:02:52.784Z,10.30
2023-01-05T10:05:22.298Z,10.40
2023-01-05T10:07:55.417Z,10.40
2023-01-05T10:11:09.633Z,10.40
2023-01-05T10:13:42.806Z,10.50
2023-01-05T10:16:16.834Z,10.50
2023-01-05T10:18:45.559Z,10.30
2023-01-05T10:21:34.641Z,10.70
2023-01-05T10:24:27.567Z,10.70
2023-01-05T10:30:02.902Z,10.90
2023-01-05T10:36:08.656Z,10.90
2023-01-05T10:41:43.904Z,10.90
2023-01-05T10:44:39.279Z,10.80
2023-01-05T10:47:10.157Z,10.70
2023-01-05T10:49:38.524Z,10.70
2023-01-05T10:52:11.973Z,10.70
2023-01-05T10:57:36.810Z,10.70
2023-01-05T11:02:51.053Z,11.10
2023-01-05T11:05:32.123Z,10.40
2023-01-05T11:08:03.108Z,10.80
2023-01-05T11:10:34.578Z,10.90
2023-01-05T11:13:23.035Z,11.00
2023-01-05T11:15:56.130Z,10.90
2023-01-05T11:18:31.135Z,11.00
2023-01-05T11:21:19.147Z,10.60
2023-01-05T11:23:50.764Z,11.00
2023-01-05T11:26:27.618Z,10.90
2023-01-05T11:31:59.155Z,10.80
2023-01-05T11:34:39.112Z,10.20
2023-01-05T11:37:27.443Z,10.80
2023-01-05T11:39:58.574Z,10.80
2023-01-05T11:42:30.696Z,10.80
2023-01-05T11:45:17.767Z,10.80
2023-01-05T11:47:48.405Z,10.70
2023-01-05T11:50:22.343Z,10.70
2023-01-05T11:52:54.145Z,10.70
2023-01-05T11:55:30.061Z,10.70
2023-01-05T11:58:13.759Z,10.70
2023-01-05T12:01:11.324Z,10.70
2023-01-05T12:04:19.664Z,10.70
2023-01-05T12:07:26.685Z,10.80
2023-01-05T12:10:31.723Z,10.70
2023-01-05T12:13:38.879Z,10.70
2023-01-05T12:22:34.551Z,10.70
2023-01-05T12:25:30.013Z,10.70
2023-01-05T12:28:40.493Z,10.90
2023-01-05T12:35:05.480Z,11.00
2023-01-05T12:37:57.307Z,10.90
2023-01-05T12:40:42.467Z,10.90
2023-01-05T12:43:16.276Z,10.90
2023-01-05T12:45:58.893Z,10.00
2023-01-05T12:48:46.276Z,11.00
2023-01-05T12:51:28.794Z,10.90
2023-01-05T12:54:07.339Z,10.90
2023-01-05T12:56:48.214Z,10.80
2023-01-05T12:59:24.984Z,9.90
2023-01-05T13:02:20.656Z,10.70
2023-01-05T13:05:14.074Z,10.70
2023-01-05T13:07:50.627Z,10.70
2023-01-05T13:10:34.034Z,10.70
2023-01-05T13:13:06.216Z,10.70
2023-01-05T13:15:42.054Z,10.70
2023-01-05T13:18:17.577Z,10.70
2023-01-05T13:20:54.490Z,10.70
2023-01-05T13:23:27.246Z,10.70
2023-01-05T13:26:17.166Z,10.40
2023-01-05T13:28:48.593Z,10.50
2023-01-05T13:34:43.637Z,11.00
2023-01-05T13:37:39.396Z,10.80
2023-01-05T13:43:11.778Z,10.80
2023-01-05T13:46:07.148Z,10.70
2023-01-05T13:49:07.391Z,10.70
2023-01-05T13:52:01.357Z,10.70
2023-01-05T13:57:15.927Z,10.70
2023-01-05T13:59:55.052Z,10.70
2023-01-05T14:02:30.066Z,10.80
2023-01-05T14:04:58.576Z,10.80
2023-01-05T14:07:27.251Z,9.80
2023-01-05T14:09:57.312Z,10.70
2023-01-05T14:12:42.421Z,10.70
2023-01-05T14:17:55.891Z,10.70
2023-01-05T14:20:34.721Z,10.60
2023-01-05T14:23:23.927Z,10.60
2023-01-05T14:25:55.010Z,10.60
2023-01-05T14:28:41.578Z,10.60
2023-01-05T14:34:04.538Z,10.50
2023-01-05T14:37:01.011Z,10.50
2023-01-05T14:39:37.984Z,10.60
2023-01-05T14:42:15.826Z,10.20
2023-01-05T14:44:51.666Z,10.50
2023-01-05T14:47:35.212Z,10.50
2023-01-05T14:50:04.889Z,10.50
2023-01-05T14:52:54.026Z,10.50
2023-01-05T14:58:44.828Z,10.40
2023-01-05T15:01:26.705Z,10.40
2023-01-05T15:04:17.503Z,10.40
2023-01-05T15:07:05.166Z,10.40
2023-01-05T15:12:42.082Z,10.40
2023-01-05T15:15:28.865Z,10.40
2023-01-05T15:21:26.483Z,10.50
2023-01-05T15:24:20.162Z,10.40
2023-01-05T15:27:18.395Z,10.40
2023-01-05T15:30:11.015Z,10.40
2023-01-05T15:32:43.446Z,10.30
2023-01-05T15:35:22.144Z,10.30
2023-01-05T15:37:52.079Z,10.60
2023-01-05T15:40:27.295Z,10.30
2023-01-05T15:42:59.153Z,10.20
2023-01-05T15:45:30.066Z,10.20
2023-01-05T15:48:00.942Z,10.20
2023-01-05T15:50:36.527Z,10.20
2023-01-05T15:53:03.918Z,9.90
2023-01-05T15:55:31.150Z,10.20
2023-01-05T15:58:00.950Z,10.50
2023-01-05T16:00:31.355Z,10.10
2023-01-05T16:02:59.871Z,10.20
2023-01-05T16:05:33.908Z,10.10
2023-01-05T16:08:06.794Z,10.10
2023-01-05T16:10:44.373Z,10.10
2023-01-05T16:13:16.936Z,10.10
2023-01-05T16:15:49.645Z,10.10
2023-01-05T16:18:25.070Z,10.00
2023-01-05T16:20:54.516Z,9.60
2023-01-05T16:23:46.785Z,10.00
2023-01-05T16:26:17.303Z,9.20
2023-01-05T16:28:45.591Z,9.90
2023-01-05T16:31:15.756Z,10.00
2023-01-05T16:33:44.446Z,10.00
2023-01-05T16:36:22.668Z,9.90
2023-01-05T16:38:49.878Z,9.90
2023-01-05T16:41:23.764Z,9.80
2023-01-05T16:43:56.867Z,9.70
2023-01-05T16:46:29.431Z,9.70
2023-01-05T16:49:25.819Z,9.40
2023-01-05T16:51:54.203Z,9.60
2023-01-05T16:54:24.898Z,9.50
2023-01-05T16:57:02.294Z,9.50
2023-01-05T16:59:50.122Z,9.50
